Terminal Aerodrome Forecast
Issued by NWS Charleston, WV

Current Version | Previous Version | Graphics & Text | Print | Product List | Glossary On
Versions: 1 2 3 4 5 6 7 8 9 10 11 12 13 14 15 16 17 18 19 20 21 22 23
000
FTUS41 KRLX 141100
TAFPKB
TAF
KPKB 141120Z 1412/1512 VRB03KT 1/4SM FG VV001
     FM141300 VRB03KT 5SM BR SCT002
     FM141400 VRB03KT P6SM FEW250
     FM141700 00000KT P6SM FEW035
     FM150500 00000KT 3SM BR FEW040
     FM150600 00000KT 1/2SM FG VV001=

USA.gov is the U.S. government's official web portal to all federal, state and local government web resources and services.